Time;durP1;ratioP1;P1;durP2;ratioP2;P2;SDS_P1;SDS_P2;PMS_P1;PMS_P2;Temp;Humidity;BMP_temperature;BMP_pressure;BME280_temperature;BME280_humidity;BME280_pressure;Samples;Min_cycle;Max_cycle;Signal;HPM_P1;HPM_P2
2022/10/22 00:00:07;;;;;;;4.03;3.63;;;8.50;67.80;;;;;;5047470;28;20546;-62
2022/10/22 00:02:33;;;;;;;4.95;3.67;;;8.50;68.20;;;;;;5050344;28;20100;-62
2022/10/22 00:04:59;;;;;;;4.72;3.85;;;8.40;67.70;;;;;;5043861;28;20112;-62
2022/10/22 00:07:25;;;;;;;4.65;3.58;;;8.40;67.90;;;;;;5036988;28;20045;-61
2022/10/22 00:09:50;;;;;;;4.80;3.72;;;8.40;67.70;;;;;;5049837;28;20468;-62
2022/10/22 00:12:17;;;;;;;5.32;3.97;;;8.30;67.70;;;;;;5052213;28;20033;-61
2022/10/22 00:14:43;;;;;;;4.85;3.80;;;8.40;67.80;;;;;;5072024;28;20028;-62
2022/10/22 00:17:09;;;;;;;4.88;4.13;;;8.30;67.70;;;;;;5071814;28;20036;-62
2022/10/22 00:19:34;;;;;;;6.22;4.50;;;8.30;67.80;;;;;;5071587;28;20365;-62
2022/10/22 00:22:04;;;;;;;6.05;4.15;;;8.30;67.90;;;;;;5071918;28;20032;-62
2022/10/22 00:24:30;;;;;;;7.43;5.28;;;8.20;67.90;;;;;;5070345;28;20048;-62
2022/10/22 00:26:56;;;;;;;6.57;5.18;;;8.20;68.00;;;;;;5068806;28;20113;-61
2022/10/22 00:29:22;;;;;;;8.50;5.57;;;8.30;68.00;;;;;;5071699;28;20063;-62
2022/10/22 00:31:50;;;;;;;5.75;4.72;;;8.20;68.00;;;;;;5071589;28;20025;-61
2022/10/22 00:34:20;;;;;;;7.82;5.20;;;8.30;68.00;;;;;;5070819;28;20482;-62
2022/10/22 00:36:46;;;;;;;7.75;5.25;;;8.20;67.90;;;;;;5069804;28;20027;-62
2022/10/22 00:39:15;;;;;;;6.93;5.25;;;8.20;68.00;;;;;;5071548;28;20032;-61
2022/10/22 00:41:41;;;;;;;6.80;4.95;;;8.20;68.00;;;;;;5067567;28;20025;-62
2022/10/22 00:44:27;;;;;;;7.60;5.13;;;8.20;68.00;;;;;;5062898;28;20094;-62
2022/10/22 00:46:53;;;;;;;7.35;5.40;;;8.20;68.00;;;;;;5067221;28;20047;-62
2022/10/22 00:49:19;;;;;;;7.03;5.10;;;8.20;68.00;;;;;;5070170;28;20480;-62
2022/10/22 00:51:44;;;;;;;7.45;5.15;;;8.20;68.00;;;;;;5070599;28;20039;-61
2022/10/22 00:54:10;;;;;;;7.53;6.00;;;8.20;68.00;;;;;;5070995;28;20078;-62
2022/10/22 00:56:36;;;;;;;7.68;5.53;;;8.20;68.20;;;;;;5071390;28;20017;-62
2022/10/22 00:59:03;;;;;;;7.90;5.43;;;8.20;68.20;;;;;;5067388;28;20024;-61
2022/10/22 01:01:30;;;;;;;6.75;5.10;;;8.20;68.20;;;;;;5071583;28;20016;-61
2022/10/22 01:03:56;;;;;;;6.68;4.95;;;8.20;68.10;;;;;;5071397;28;20361;-62
2022/10/22 01:06:28;;;;;;;9.75;5.15;;;8.20;68.10;;;;;;5070526;28;20031;-62
2022/10/22 01:09:08;;;;;;;5.90;4.75;;;8.20;68.00;;;;;;5067192;28;20111;-62
2022/10/22 01:11:42;;;;;;;6.95;4.65;;;8.20;68.10;;;;;;5071321;28;20032;-62
2022/10/22 01:14:23;;;;;;;6.07;4.45;;;8.20;68.10;;;;;;5071055;28;20076;-62
2022/10/22 01:17:08;;;;;;;5.40;4.28;;;8.20;68.10;;;;;;5070718;28;20671;-61
2022/10/22 01:20:21;;;;;;;6.35;4.22;;;8.20;67.90;;;;;;5070936;28;20027;-62
2022/10/22 01:23:20;;;;;;;6.07;4.40;;;8.20;68.40;;;;;;5004331;28;20076;-61
2022/10/22 01:25:59;;;;;;;5.68;4.45;;;8.20;67.70;;;;;;5047279;28;20103;-62
2022/10/22 01:28:49;;;;;;;5.55;3.85;;;8.20;67.50;;;;;;5070900;28;20037;-61
2022/10/22 01:31:17;;;;;;;6.22;4.00;;;8.20;67.50;;;;;;5066740;28;20108;-61
2022/10/22 01:33:44;;;;;;;5.45;3.60;;;8.20;67.40;;;;;;5052333;28;20023;-61
2022/10/22 01:36:11;;;;;;;4.82;3.72;;;8.20;67.50;;;;;;5071229;28;20162;-62
2022/10/22 01:38:38;;;;;;;4.93;4.13;;;8.10;67.40;;;;;;5070612;28;20451;-61
2022/10/22 01:41:05;;;;;;;5.82;4.53;;;8.10;67.40;;;;;;5072040;28;20536;-61
2022/10/22 01:43:31;;;;;;;5.53;4.72;;;8.10;68.10;;;;;;5062984;28;20024;-61
2022/10/22 01:46:00;;;;;;;6.55;4.90;;;8.10;67.60;;;;;;5074392;28;20028;-61
2022/10/22 01:48:44;;;;;;;6.90;5.60;;;8.10;67.50;;;;;;5073659;28;20557;-61
2022/10/22 01:51:28;;;;;;;7.20;5.05;;;8.10;67.50;;;;;;5073647;28;20021;-61
2022/10/22 01:54:32;;;;;;;7.22;5.32;;;8.10;67.50;;;;;;5074296;28;20020;-62
2022/10/22 01:57:23;;;;;;;8.18;6.07;;;8.00;67.60;;;;;;5064839;28;20056;-61
2022/10/22 02:00:02;;;;;;;6.75;5.53;;;8.00;67.40;;;;;;5073447;28;20020;-62
2022/10/22 02:02:59;;;;;;;6.18;5.32;;;8.00;67.40;;;;;;5073788;28;20051;-61
2022/10/22 02:05:50;;;;;;;8.50;4.85;;;8.00;67.40;;;;;;5074314;28;20024;-58
2022/10/22 02:08:30;;;;;;;6.60;5.07;;;8.00;67.40;;;;;;5074213;28;20021;-60
2022/10/22 02:10:57;;;;;;;5.32;4.70;;;8.00;67.40;;;;;;5074068;28;20099;-61
2022/10/22 02:13:35;;;;;;;6.00;4.95;;;7.90;67.40;;;;;;5069410;28;20514;-61
2022/10/22 02:16:05;;;;;;;5.93;4.45;;;7.90;67.30;;;;;;5062219;28;20056;-61
2022/10/22 02:18:33;;;;;;;5.82;4.75;;;7.90;67.40;;;;;;5055146;28;20067;-61
2022/10/22 02:20:59;;;;;;;6.40;4.65;;;7.80;67.40;;;;;;5073402;28;20442;-62
2022/10/22 02:23:25;;;;;;;5.65;4.63;;;7.80;67.40;;;;;;5074095;28;20028;-62
2022/10/22 02:25:58;;;;;;;5.03;4.15;;;7.80;67.50;;;;;;5073668;28;20376;-62
2022/10/22 02:28:28;;;;;;;5.78;4.50;;;7.80;67.50;;;;;;5073608;28;20024;-62
2022/10/22 02:30:59;;;;;;;7.50;4.60;;;7.80;67.50;;;;;;5073976;28;20016;-61
2022/10/22 02:33:26;;;;;;;;;;;7.80;67.90;;;;;;5074140;28;20078;-62
2022/10/22 02:35:54;;;;;;;7.70;4.43;;;7.80;67.50;;;;;;5073731;28;19987;-62
2022/10/22 02:38:20;;;;;;;7.25;4.72;;;7.80;67.70;;;;;;5073622;28;20428;-61
2022/10/22 02:40:46;;;;;;;10.88;6.65;;;7.80;67.90;;;;;;5072582;28;20052;-62
2022/10/22 02:43:12;;;;;;;10.30;6.82;;;7.80;67.70;;;;;;5066354;28;20075;-61
2022/10/22 02:45:37;;;;;;;9.82;6.85;;;7.80;67.60;;;;;;5073625;28;20031;-61
2022/10/22 02:48:04;;;;;;;12.48;7.53;;;7.70;67.80;;;;;;5072494;28;20069;-61
2022/10/22 02:50:29;;;;;;;10.50;7.22;;;7.70;67.70;;;;;;5070736;28;20027;-61
2022/10/22 02:52:55;;;;;;;9.90;6.75;;;7.80;67.90;;;;;;5073125;28;20028;-61
2022/10/22 02:55:20;;;;;;;10.50;7.53;;;7.80;67.90;;;;;;5083684;28;20434;-61
2022/10/22 02:57:46;;;;;;;10.38;6.25;;;7.80;67.90;;;;;;5074482;28;20028;-62
2022/10/22 03:00:12;;;;;;;6.90;5.50;;;7.80;67.80;;;;;;5072168;28;20028;-61
2022/10/22 03:02:38;;;;;;;6.93;5.10;;;7.80;67.80;;;;;;5072540;28;20083;-62
2022/10/22 03:05:04;;;;;;;6.93;4.78;;;7.80;67.80;;;;;;5073186;28;20048;-62
2022/10/22 03:07:30;;;;;;;8.30;4.88;;;7.90;67.70;;;;;;5072801;28;20028;-61
2022/10/22 03:09:55;;;;;;;5.82;4.72;;;7.90;67.80;;;;;;5072076;28;20357;-62
2022/10/22 03:12:21;;;;;;;6.45;4.75;;;7.90;67.70;;;;;;5072295;28;20032;-61
2022/10/22 03:14:46;;;;;;;6.50;4.40;;;7.90;67.70;;;;;;5072851;28;20032;-62
2022/10/22 03:17:12;;;;;;;5.80;4.53;;;7.80;67.70;;;;;;5072350;28;20028;-61
2022/10/22 03:19:38;;;;;;;5.38;4.25;;;7.90;67.70;;;;;;5053812;28;20456;-61
2022/10/22 03:22:12;;;;;;;6.47;4.13;;;7.90;67.80;;;;;;5054385;28;20017;-62
2022/10/22 03:24:43;;;;;;;5.57;4.10;;;7.90;67.80;;;;;;5072646;28;20476;-61
2022/10/22 03:27:11;;;;;;;5.88;4.30;;;7.90;67.70;;;;;;5073204;28;20025;-61
2022/10/22 03:29:39;;;;;;;5.63;4.55;;;7.90;67.80;;;;;;5072172;28;20031;-61
2022/10/22 03:32:04;;;;;;;5.97;4.22;;;7.90;67.80;;;;;;5072888;28;20383;-62
2022/10/22 03:34:30;;;;;;;5.13;3.88;;;7.90;67.70;;;;;;5072571;28;20020;-62
2022/10/22 03:36:59;;;;;;;6.53;4.10;;;7.90;67.80;;;;;;5072637;28;20019;-62
2022/10/22 03:39:27;;;;;;;5.93;3.85;;;7.90;67.70;;;;;;5050873;28;20025;-62
2022/10/22 03:41:53;;;;;;;5.13;4.10;;;7.90;67.80;;;;;;5076372;28;20017;-61
2022/10/22 03:44:20;;;;;;;5.22;4.15;;;7.90;67.90;;;;;;5066111;28;20353;-61
2022/10/22 03:46:46;;;;;;;5.40;3.78;;;7.90;68.00;;;;;;5072644;28;20598;-61
2022/10/22 03:49:11;;;;;;;6.18;4.28;;;7.90;67.90;;;;;;5070980;28;20024;-62
2022/10/22 03:51:37;;;;;;;5.50;3.75;;;7.90;68.00;;;;;;5071960;28;20029;-61
2022/10/22 03:54:03;;;;;;;5.93;4.22;;;7.90;68.00;;;;;;5072205;28;20055;-62
2022/10/22 03:56:29;;;;;;;5.57;4.30;;;7.90;68.00;;;;;;5072438;28;20017;-62
2022/10/22 03:58:56;;;;;;;5.63;4.03;;;7.90;67.90;;;;;;5069388;28;20021;-62
2022/10/22 04:01:22;;;;;;;5.60;4.05;;;7.90;68.10;;;;;;5059353;28;20024;-62
2022/10/22 04:03:48;;;;;;;4.85;3.92;;;7.90;68.10;;;;;;5071717;28;20031;-61
2022/10/22 04:06:14;;;;;;;5.35;3.97;;;7.90;68.10;;;;;;5053954;28;20392;-61
2022/10/22 04:08:43;;;;;;;8.77;4.03;;;7.90;68.10;;;;;;5071654;28;20511;-61
2022/10/22 04:11:10;;;;;;;5.55;4.43;;;7.90;68.20;;;;;;5072086;28;20025;-62
2022/10/22 04:13:36;;;;;;;5.47;4.13;;;7.90;68.10;;;;;;5071650;28;20051;-61
2022/10/22 04:16:07;;;;;;;6.57;4.90;;;7.90;68.20;;;;;;5071821;28;20028;-62
2022/10/22 04:18:33;;;;;;;7.70;4.55;;;8.00;68.20;;;;;;5071415;28;20074;-62
2022/10/22 04:20:59;;;;;;;5.45;4.07;;;8.00;68.20;;;;;;5071370;28;20048;-62
2022/10/22 04:23:24;;;;;;;6.63;4.53;;;8.00;68.20;;;;;;5071307;28;20384;-61
2022/10/22 04:25:57;;;;;;;7.10;5.38;;;8.00;68.20;;;;;;5067668;28;20052;-62
2022/10/22 04:28:22;;;;;;;8.57;5.78;;;8.10;68.10;;;;;;5082294;28;20008;-62
2022/10/22 04:30:48;;;;;;;11.73;7.28;;;8.10;68.20;;;;;;5074040;28;20039;-63
2022/10/22 04:33:13;;;;;;;10.95;7.93;;;8.10;68.20;;;;;;5074459;28;20031;-62
2022/10/22 04:35:39;;;;;;;13.35;8.70;;;8.10;68.10;;;;;;5076866;28;20020;-62
2022/10/22 04:38:05;;;;;;;14.55;8.70;;;8.20;68.10;;;;;;5075960;28;20033;-63
2022/10/22 04:40:30;;;;;;;10.95;6.97;;;8.20;68.10;;;;;;5076175;28;20094;-62
2022/10/22 04:42:56;;;;;;;11.65;7.43;;;8.20;68.10;;;;;;5076093;28;20032;-63
2022/10/22 04:45:21;;;;;;;12.10;7.93;;;8.20;68.10;;;;;;5075653;28;20472;-62
2022/10/22 04:47:47;;;;;;;11.55;7.65;;;8.30;68.20;;;;;;5073093;28;20028;-63
2022/10/22 04:50:13;;;;;;;12.15;7.70;;;8.30;68.20;;;;;;5072558;28;20115;-63
2022/10/22 04:52:38;;;;;;;12.50;7.10;;;8.30;68.10;;;;;;5066546;28;20037;-62
2022/10/22 04:55:04;;;;;;;15.38;8.50;;;8.40;68.20;;;;;;5076020;28;20076;-62
2022/10/22 04:57:31;;;;;;;11.80;7.47;;;8.40;68.10;;;;;;5072271;28;20025;-62
2022/10/22 04:59:56;;;;;;;11.70;7.72;;;8.50;68.20;;;;;;5068608;28;20024;-63
2022/10/22 05:02:22;;;;;;;9.10;5.97;;;8.50;68.10;;;;;;5073972;28;20115;-63
2022/10/22 05:04:47;;;;;;;11.25;6.25;;;8.60;68.30;;;;;;5072725;28;20383;-62
2022/10/22 05:07:13;;;;;;;8.15;5.82;;;8.60;68.20;;;;;;5073062;28;20436;-62
2022/10/22 05:09:39;;;;;;;8.88;6.10;;;8.60;68.10;;;;;;5071215;28;20055;-63
2022/10/22 05:12:05;;;;;;;9.52;5.90;;;8.70;68.20;;;;;;5072956;28;20031;-63
2022/10/22 05:14:31;;;;;;;7.93;5.60;;;8.70;68.20;;;;;;5075333;28;20526;-62
2022/10/22 05:16:57;;;;;;;9.48;6.00;;;8.70;68.00;;;;;;5077040;28;20037;-63
2022/10/22 05:19:29;;;;;;;7.82;5.10;;;8.80;68.10;;;;;;5077843;28;20428;-63
2022/10/22 05:21:58;;;;;;;6.32;4.72;;;8.80;68.00;;;;;;5077771;28;20029;-63
2022/10/22 05:24:24;;;;;;;6.95;4.82;;;8.80;68.10;;;;;;5079206;28;20460;-63
2022/10/22 05:26:51;;;;;;;8.50;5.10;;;8.90;68.10;;;;;;5080137;28;20024;-62
2022/10/22 05:29:18;;;;;;;8.63;5.20;;;8.90;67.90;;;;;;5077773;28;20761;-63
2022/10/22 05:31:44;;;;;;;7.40;4.95;;;8.90;67.90;;;;;;5058459;28;20488;-63
2022/10/22 05:34:09;;;;;;;8.57;5.20;;;8.90;67.90;;;;;;5067702;28;20025;-62
2022/10/22 05:36:35;;;;;;;6.28;4.40;;;9.00;68.50;;;;;;5078668;28;20056;-63
2022/10/22 05:39:01;;;;;;;7.28;4.65;;;9.00;67.90;;;;;;5076460;28;20031;-62
2022/10/22 05:41:28;;;;;;;6.05;4.07;;;9.10;68.00;;;;;;5073055;28;20032;-62
2022/10/22 05:43:56;;;;;;;5.63;4.53;;;9.10;67.90;;;;;;5077825;28;20028;-62
2022/10/22 05:46:23;;;;;;;4.60;4.10;;;9.10;67.90;;;;;;5077766;28;20044;-62
2022/10/22 05:48:55;;;;;;;5.72;4.18;;;9.20;67.90;;;;;;5079085;28;20050;-62
2022/10/22 05:51:21;;;;;;;5.70;4.20;;;9.20;67.90;;;;;;5079413;28;20387;-63
2022/10/22 05:53:52;;;;;;;5.45;3.80;;;9.30;67.90;;;;;;5078774;28;20024;-63
2022/10/22 05:56:17;;;;;;;5.05;3.80;;;9.40;67.90;;;;;;5076675;28;20029;-62
2022/10/22 05:58:44;;;;;;;5.15;4.00;;;9.40;67.90;;;;;;5074088;28;20074;-62
2022/10/22 06:01:21;;;;;;;5.72;4.22;;;9.50;67.90;;;;;;5075209;28;20195;-63
2022/10/22 06:03:48;;;;;;;4.57;3.78;;;9.50;67.80;;;;;;5077012;28;20082;-61
2022/10/22 06:06:20;;;;;;;5.47;3.80;;;9.50;67.80;;;;;;5064457;28;20559;-62
2022/10/22 06:08:49;;;;;;;5.43;3.70;;;9.60;67.80;;;;;;5068188;28;20108;-62
2022/10/22 06:11:16;;;;;;;7.22;4.35;;;9.60;67.70;;;;;;5077284;28;20024;-62
2022/10/22 06:13:44;;;;;;;6.00;4.20;;;9.70;67.90;;;;;;5075645;28;20056;-63
2022/10/22 06:16:09;;;;;;;5.60;4.50;;;9.70;68.00;;;;;;5078608;28;20020;-63
2022/10/22 06:18:35;;;;;;;5.35;3.67;;;9.80;68.00;;;;;;5059473;28;20029;-62
2022/10/22 06:21:10;;;;;;;6.25;4.38;;;9.90;67.90;;;;;;5076703;28;20056;-63
2022/10/22 06:23:37;;;;;;;5.28;4.03;;;10.00;68.00;;;;;;5072928;28;20025;-63
2022/10/22 06:26:04;;;;;;;7.13;4.90;;;10.10;67.90;;;;;;5072923;28;20017;-63
2022/10/22 06:28:30;;;;;;;6.78;4.90;;;10.20;68.00;;;;;;5068915;28;20187;-62
2022/10/22 06:30:58;;;;;;;5.25;3.90;;;10.30;68.00;;;;;;5071903;28;20025;-62
2022/10/22 06:33:24;;;;;;;6.82;4.60;;;10.30;68.10;;;;;;5074342;28;20029;-63
2022/10/22 06:35:50;;;;;;;6.82;4.68;;;10.40;68.00;;;;;;5074954;28;20090;-63
2022/10/22 06:38:16;;;;;;;5.13;3.88;;;10.50;68.00;;;;;;5072463;28;20028;-63
2022/10/22 06:40:43;;;;;;;7.68;5.05;;;10.60;68.20;;;;;;5074008;28;20090;-63
2022/10/22 06:43:13;;;;;;;5.95;4.55;;;10.70;68.00;;;;;;5074899;28;20024;-63
2022/10/22 06:45:39;;;;;;;7.03;4.13;;;10.80;68.00;;;;;;5077046;28;20031;-62
2022/10/22 06:48:05;;;;;;;6.25;4.32;;;10.90;67.90;;;;;;5077370;28;20058;-63
2022/10/22 06:50:33;;;;;;;5.95;4.32;;;10.90;67.80;;;;;;5072083;28;20107;-62
2022/10/22 06:52:59;;;;;;;7.07;4.30;;;11.00;68.00;;;;;;5073954;28;20081;-62
2022/10/22 06:55:25;;;;;;;5.25;3.97;;;11.10;68.00;;;;;;5075886;28;20028;-63
2022/10/22 06:57:50;;;;;;;6.72;4.50;;;11.20;67.90;;;;;;5075965;28;20020;-63
2022/10/22 07:00:16;;;;;;;9.38;4.97;;;11.20;67.80;;;;;;5070432;28;20060;-63
2022/10/22 07:02:42;;;;;;;7.60;4.50;;;11.30;67.80;;;;;;5075599;28;20025;-62
2022/10/22 07:05:08;;;;;;;6.10;4.65;;;11.30;67.80;;;;;;5075727;28;20032;-63
2022/10/22 07:07:33;;;;;;;5.82;4.18;;;11.40;67.70;;;;;;5073856;28;20059;-62
2022/10/22 07:09:59;;;;;;;6.18;4.68;;;11.40;67.80;;;;;;5072442;28;20035;-61
2022/10/22 07:12:25;;;;;;;6.47;4.60;;;11.30;67.60;;;;;;5060767;28;20029;-62
2022/10/22 07:14:50;;;;;;;6.95;4.60;;;11.40;67.80;;;;;;5072829;28;20099;-62
2022/10/22 07:17:16;;;;;;;7.22;4.70;;;11.40;67.80;;;;;;5071264;28;20490;-61
2022/10/22 07:19:41;;;;;;;6.13;4.40;;;11.40;67.80;;;;;;5070250;28;20081;-62
2022/10/22 07:22:07;;;;;;;7.20;4.70;;;11.40;67.90;;;;;;5070754;28;20107;-62
2022/10/22 07:24:33;;;;;;;8.57;4.68;;;11.50;67.90;;;;;;5070116;28;20455;-61
2022/10/22 07:26:58;;;;;;;5.30;4.00;;;11.50;67.90;;;;;;5071418;28;20104;-61
2022/10/22 07:29:24;;;;;;;6.85;4.07;;;11.50;67.90;;;;;;5071322;28;20116;-62
2022/10/22 07:31:50;;;;;;;5.50;4.20;;;11.50;67.70;;;;;;5072787;28;20757;-62
2022/10/22 07:34:15;;;;;;;6.03;4.07;;;11.40;67.80;;;;;;5065855;28;20025;-62
2022/10/22 07:36:41;;;;;;;7.40;3.80;;;11.40;67.90;;;;;;5071796;28;20384;-61
2022/10/22 07:39:07;;;;;;;5.07;3.60;;;11.40;68.00;;;;;;5072765;28;20467;-61
2022/10/22 07:41:33;;;;;;;4.55;3.40;;;11.30;68.10;;;;;;5070796;28;20028;-62
2022/10/22 07:43:58;;;;;;;4.40;3.50;;;11.30;68.20;;;;;;5072671;28;20090;-62
2022/10/22 07:46:25;;;;;;;4.90;3.33;;;11.30;68.40;;;;;;5054556;28;20020;-62
2022/10/22 07:48:51;;;;;;;4.28;3.40;;;11.30;68.60;;;;;;5072275;28;20110;-62
2022/10/22 07:51:17;;;;;;;5.45;3.60;;;11.30;68.60;;;;;;5071191;28;20013;-62
2022/10/22 07:53:42;;;;;;;5.22;3.72;;;11.30;68.80;;;;;;5054563;28;20593;-62
2022/10/22 07:56:08;;;;;;;4.15;3.40;;;11.40;68.80;;;;;;5069379;28;20161;-62
2022/10/22 07:58:34;;;;;;;5.10;3.30;;;11.40;68.80;;;;;;5071059;28;20025;-61
2022/10/22 08:01:01;;;;;;;5.50;3.42;;;11.40;68.80;;;;;;5064840;28;20480;-62
2022/10/22 08:03:27;;;;;;;4.72;3.65;;;11.40;69.00;;;;;;5070704;28;20028;-62
2022/10/22 08:05:53;;;;;;;5.10;3.10;;;11.40;69.10;;;;;;5069911;28;20028;-62
2022/10/22 08:08:20;;;;;;;4.78;3.72;;;11.40;69.20;;;;;;5070440;28;20024;-62
2022/10/22 08:10:47;;;;;;;6.18;3.70;;;11.40;69.20;;;;;;5070345;28;20098;-62
2022/10/22 08:13:14;;;;;;;4.90;4.05;;;11.40;69.40;;;;;;5070129;28;20040;-62
2022/10/22 08:15:41;;;;;;;4.72;3.88;;;11.50;69.60;;;;;;5059952;28;20379;-62
2022/10/22 08:18:07;;;;;;;6.03;4.10;;;11.50;69.70;;;;;;5071975;28;20038;-62
2022/10/22 08:20:32;;;;;;;5.85;4.55;;;11.60;69.70;;;;;;5068372;28;20531;-62
2022/10/22 08:22:58;;;;;;;6.30;4.03;;;11.60;69.80;;;;;;5071146;28;20028;-62
2022/10/22 08:25:24;;;;;;;9.05;4.70;;;11.70;69.80;;;;;;5071980;28;20044;-62
2022/10/22 08:27:50;;;;;;;6.15;4.28;;;11.70;69.80;;;;;;5071961;28;20032;-61
2022/10/22 08:30:16;;;;;;;7.93;4.40;;;11.80;69.80;;;;;;5072316;28;20012;-62
2022/10/22 08:32:44;;;;;;;6.38;3.78;;;11.90;69.90;;;;;;5069695;28;20111;-62
2022/10/22 08:35:15;;;;;;;5.50;3.95;;;12.00;69.90;;;;;;5069888;28;20024;-62
2022/10/22 08:37:40;;;;;;;7.95;4.55;;;12.00;69.90;;;;;;5071085;28;20436;-61
2022/10/22 08:40:06;;;;;;;10.05;5.20;;;12.10;70.00;;;;;;5065694;28;20123;-62
2022/10/22 08:42:54;;;;;;;7.15;4.90;;;12.20;69.80;;;;;;5056509;28;20372;-62
2022/10/22 08:45:34;;;;;;;7.55;5.03;;;12.30;69.80;;;;;;5061408;28;20028;-62
2022/10/22 08:48:03;;;;;;;6.38;4.10;;;12.40;69.70;;;;;;5065059;28;20031;-61
2022/10/22 08:50:40;;;;;;;7.10;4.78;;;12.40;69.70;;;;;;5062186;28;20025;-62
2022/10/22 08:53:16;;;;;;;5.78;3.13;;;12.50;69.80;;;;;;5078279;28;20100;-62
2022/10/22 08:55:43;;;;;;;4.00;2.83;;;12.50;69.60;;;;;;5082895;28;20032;-61
2022/10/22 08:58:32;;;;;;;3.33;2.42;;;12.60;69.50;;;;;;5066728;28;20024;-62
2022/10/22 09:01:02;;;;;;;5.72;2.92;;;12.70;69.60;;;;;;5061821;28;20400;-62
2022/10/22 09:03:34;;;;;;;4.55;3.10;;;12.80;69.60;;;;;;5068538;28;20033;-61
2022/10/22 09:06:39;;;;;;;4.03;2.88;;;12.90;69.50;;;;;;5073535;28;20028;-62
2022/10/22 09:09:15;;;;;;;4.10;2.92;;;13.00;69.30;;;;;;5044790;28;20029;-62
2022/10/22 09:11:49;;;;;;;5.05;2.95;;;13.10;69.30;;;;;;5051483;28;20020;-62
2022/10/22 09:14:18;;;;;;;5.32;3.15;;;13.20;69.30;;;;;;5070687;28;20044;-62
2022/10/22 09:16:56;;;;;;;6.15;3.50;;;13.30;69.20;;;;;;5066843;28;20031;-62
2022/10/22 09:19:36;;;;;;;5.78;3.80;;;13.40;68.90;;;;;;5077963;28;20016;-62
2022/10/22 09:22:13;;;;;;;7.45;4.13;;;13.40;68.80;;;;;;5072901;28;20122;-62
2022/10/22 09:24:45;;;;;;;7.63;3.80;;;13.50;68.70;;;;;;5067944;28;20107;-61
2022/10/22 09:27:19;;;;;;;7.13;4.25;;;13.50;68.40;;;;;;5070026;28;20028;-62
2022/10/22 09:29:46;;;;;;;7.43;4.30;;;13.60;68.40;;;;;;5069730;28;20422;-62
2022/10/22 09:32:13;;;;;;;7.05;3.80;;;13.60;68.30;;;;;;5070574;28;20027;-62
2022/10/22 09:34:38;;;;;;;5.03;3.63;;;13.60;68.20;;;;;;5069720;28;20024;-62
2022/10/22 09:37:07;;;;;;;6.97;3.75;;;13.70;68.10;;;;;;5071066;28;20468;-62
2022/10/22 09:39:32;;;;;;;6.90;3.67;;;13.70;68.10;;;;;;5075746;28;20128;-62
2022/10/22 09:41:58;;;;;;;6.07;4.30;;;13.70;68.00;;;;;;5073279;28;20106;-62
2022/10/22 09:44:24;;;;;;;6.78;3.85;;;13.70;68.00;;;;;;5071017;28;20384;-62
2022/10/22 09:46:49;;;;;;;7.93;4.03;;;13.80;68.10;;;;;;5071055;28;20433;-62
2022/10/22 09:49:18;;;;;;;5.55;4.05;;;13.80;68.20;;;;;;5071353;28;20021;-62
2022/10/22 09:52:23;;;;;;;7.55;4.47;;;13.90;68.10;;;;;;5070281;28;20048;-62
2022/10/22 09:54:51;;;;;;;7.45;3.60;;;13.90;68.10;;;;;;5068427;28;20605;-62
2022/10/22 09:57:21;;;;;;;6.57;3.65;;;13.90;68.00;;;;;;5070923;28;20055;-62
2022/10/22 09:59:50;;;;;;;6.75;3.88;;;14.00;68.00;;;;;;5073180;28;20020;-62
2022/10/22 10:02:21;;;;;;;5.68;3.65;;;14.10;68.10;;;;;;5073680;28;20081;-62
2022/10/22 10:04:48;;;;;;;;;;;14.10;67.90;;;;;;5067336;28;20047;-62
2022/10/22 10:07:19;;;;;;;5.90;3.33;;;14.10;68.00;;;;;;5074269;28;19904;-62
2022/10/22 10:09:45;;;;;;;4.43;3.33;;;14.10;68.00;;;;;;5074272;28;20008;-62
2022/10/22 10:12:32;;;;;;;6.55;4.18;;;14.20;68.00;;;;;;5073937;28;20095;-62
2022/10/22 10:15:01;;;;;;;5.30;3.25;;;14.20;67.90;;;;;;5072712;28;20032;-62
2022/10/22 10:17:32;;;;;;;6.05;3.17;;;14.30;68.00;;;;;;5073711;28;20020;-62
2022/10/22 10:20:16;;;;;;;6.07;3.83;;;14.30;68.00;;;;;;5072534;28;20613;-62
2022/10/22 10:23:13;;;;;;;5.00;3.72;;;14.40;68.00;;;;;;5062823;28;20027;-61
2022/10/22 10:25:53;;;;;;;5.32;3.17;;;14.40;68.10;;;;;;5080467;28;20048;-62
2022/10/22 10:28:40;;;;;;;7.40;3.50;;;14.50;68.10;;;;;;5072258;28;20020;-62
2022/10/22 10:31:22;;;;;;;5.97;3.50;;;14.50;67.80;;;;;;5071783;28;20025;-62
2022/10/22 10:34:05;;;;;;;5.97;3.00;;;14.60;67.80;;;;;;5059269;28;20032;-62
2022/10/22 10:36:58;;;;;;;4.70;3.67;;;14.50;67.70;;;;;;5071911;28;20050;-61
2022/10/22 10:39:27;;;;;;;4.60;3.05;;;14.50;67.70;;;;;;5070641;28;20029;-62
2022/10/22 10:42:30;;;;;;;4.47;3.40;;;14.60;67.70;;;;;;5072804;28;20039;-62
2022/10/22 10:45:21;;;;;;;3.92;2.80;;;14.60;67.60;;;;;;5071857;28;20484;-62
2022/10/22 10:48:11;;;;;;;6.57;3.40;;;14.60;67.70;;;;;;5071936;28;20109;-62
2022/10/22 10:51:04;;;;;;;5.82;3.42;;;14.60;67.60;;;;;;5071865;28;20199;-61
2022/10/22 10:53:36;;;;;;;3.63;3.15;;;14.60;67.70;;;;;;5068082;28;20055;-62
2022/10/22 10:56:20;;;;;;;4.57;2.70;;;14.60;67.60;;;;;;5071633;28;20041;-61
2022/10/22 10:58:52;;;;;;;3.65;2.67;;;14.60;67.70;;;;;;5069140;28;20048;-62
2022/10/22 11:01:28;;;;;;;5.10;3.00;;;14.60;67.60;;;;;;5070570;28;20051;-62
2022/10/22 11:04:13;;;;;;;4.43;2.88;;;14.60;67.60;;;;;;5072502;28;20041;-62
2022/10/22 11:06:39;;;;;;;3.03;2.50;;;14.60;67.70;;;;;;5073415;28;20443;-62
2022/10/22 11:09:17;;;;;;;4.00;3.08;;;14.60;67.80;;;;;;5054883;28;20044;-62
2022/10/22 11:12:01;;;;;;;5.13;3.15;;;14.60;67.90;;;;;;5071710;28;20024;-62
2022/10/22 11:14:54;;;;;;;4.68;3.00;;;14.60;67.90;;;;;;5065741;28;20040;-62
2022/10/22 11:17:23;;;;;;;4.50;3.10;;;14.60;67.80;;;;;;5073213;28;20031;-62
2022/10/22 11:20:21;;;;;;;5.43;3.28;;;14.60;67.90;;;;;;5072872;28;20557;-63
2022/10/22 11:22:58;;;;;;;4.80;3.35;;;14.60;67.90;;;;;;5063380;28;20094;-62
2022/10/22 11:25:38;;;;;;;4.63;3.25;;;14.60;67.90;;;;;;5055051;28;20497;-62
2022/10/22 11:28:13;;;;;;;3.05;2.67;;;14.60;68.00;;;;;;5073431;28;20020;-62
2022/10/22 11:30:42;;;;;;;3.60;2.55;;;14.50;67.90;;;;;;5060859;28;20367;-61
2022/10/22 11:33:17;;;;;;;5.03;2.88;;;14.50;67.90;;;;;;5067530;28;20025;-62
2022/10/22 11:35:45;;;;;;;3.63;2.70;;;14.50;67.90;;;;;;5072009;28;20032;-61
2022/10/22 11:38:16;;;;;;;3.92;3.05;;;14.50;67.90;;;;;;5072820;28;20028;-62
2022/10/22 11:40:59;;;;;;;4.25;2.88;;;14.50;68.10;;;;;;5053663;28;20447;-62
2022/10/22 11:43:34;;;;;;;4.25;2.83;;;14.50;68.00;;;;;;5071796;28;20077;-62
2022/10/22 11:46:22;;;;;;;3.95;3.10;;;14.50;68.00;;;;;;5072154;28;20384;-61
2022/10/22 11:49:14;;;;;;;6.00;4.22;;;14.60;68.20;;;;;;5043529;28;20143;-62
2022/10/22 11:51:42;;;;;;;4.55;3.45;;;14.60;68.20;;;;;;5058472;28;20020;-62
2022/10/22 11:54:42;;;;;;;5.90;3.33;;;14.60;68.20;;;;;;5072335;28;20467;-62
2022/10/22 11:57:14;;;;;;;4.03;3.20;;;14.60;68.20;;;;;;5069138;28;20032;-62
2022/10/22 11:59:48;;;;;;;;;;;14.60;68.10;;;;;;5060178;28;20259;-62
2022/10/22 12:02:30;;;;;;;4.25;2.85;;;14.50;68.20;;;;;;5070985;28;19916;-61
2022/10/22 12:05:36;;;;;;;5.85;2.70;;;14.60;68.20;;;;;;5072278;28;20024;-62
2022/10/22 12:08:08;;;;;;;3.42;2.50;;;14.60;68.10;;;;;;5068781;28;20036;-62
2022/10/22 12:10:48;;;;;;;3.03;2.72;;;14.60;68.20;;;;;;5071907;28;20039;-62
2022/10/22 12:13:23;;;;;;;4.50;3.15;;;14.60;68.10;;;;;;5071340;28;20048;-62
2022/10/22 12:15:53;;;;;;;4.13;2.80;;;14.60;68.20;;;;;;5071667;28;20077;-62
2022/10/22 12:18:24;;;;;;;2.60;2.40;;;14.60;68.20;;;;;;5071962;28;20024;-61
2022/10/22 12:20:52;;;;;;;4.40;2.65;;;14.70;68.20;;;;;;5066013;28;20527;-62
2022/10/22 12:23:19;;;;;;;3.28;2.60;;;14.70;68.30;;;;;;5070693;28;20032;-62
2022/10/22 12:25:45;;;;;;;3.63;3.03;;;14.70;68.30;;;;;;5072046;28;20070;-62
2022/10/22 12:28:12;;;;;;;4.07;2.58;;;14.70;68.20;;;;;;5071792;28;20044;-61
2022/10/22 12:30:38;;;;;;;2.15;2.00;;;14.70;68.20;;;;;;5071664;28;20396;-61
2022/10/22 12:33:07;;;;;;;3.00;2.70;;;14.70;68.30;;;;;;5071466;28;20162;-62
2022/10/22 12:35:41;;;;;;;3.00;2.58;;;14.70;68.30;;;;;;5071450;28;20085;-61
2022/10/22 12:38:20;;;;;;;3.28;2.70;;;14.70;68.30;;;;;;5072086;28;20032;-62
2022/10/22 12:40:47;;;;;;;3.85;3.00;;;14.70;68.40;;;;;;5069208;28;20021;-62
2022/10/22 12:43:34;;;;;;;3.22;2.50;;;14.70;68.40;;;;;;5069951;28;20020;-62
2022/10/22 12:46:00;;;;;;;3.75;3.20;;;14.70;68.40;;;;;;5071014;28;20037;-62
2022/10/22 12:48:33;;;;;;;6.10;3.60;;;14.70;68.40;;;;;;5072062;28;20035;-62
2022/10/22 12:51:00;;;;;;;4.80;3.28;;;14.70;68.50;;;;;;5079326;28;20056;-62
2022/10/22 12:53:31;;;;;;;5.22;3.20;;;14.70;68.50;;;;;;5071384;28;20035;-61
2022/10/22 12:56:04;;;;;;;4.13;2.87;;;14.80;68.60;;;;;;5071870;28;20107;-62
2022/10/22 12:58:53;;;;;;;4.78;3.55;;;14.80;68.60;;;;;;5071003;28;20257;-61
2022/10/22 13:01:19;;;;;;;5.70;3.50;;;14.80;68.60;;;;;;5071460;28;20032;-62
2022/10/22 13:03:49;;;;;;;3.22;2.63;;;14.90;68.60;;;;;;5070548;28;20447;-62
2022/10/22 13:06:17;;;;;;;4.72;2.78;;;14.90;68.50;;;;;;5084447;28;20020;-62
2022/10/22 13:08:44;;;;;;;3.15;2.58;;;15.00;68.50;;;;;;5071485;28;20594;-62
2022/10/22 13:11:11;;;;;;;2.40;2.20;;;15.00;68.50;;;;;;5067404;28;20021;-62